createdAt,value
2023-01-04T00:01:55.917Z,3.17
2023-01-04T00:04:22.752Z,0.63
2023-01-04T00:06:49.488Z,0.65
2023-01-04T00:09:16.317Z,0.73
2023-01-04T00:11:43.173Z,1.10
2023-01-04T00:14:11.607Z,0.30
2023-01-04T00:16:38.478Z,2.30
2023-01-04T00:19:05.226Z,1.27
2023-01-04T00:21:32.093Z,1.45
2023-01-04T00:24:00.869Z,1.02
2023-01-04T00:26:30.198Z,0.47
2023-01-04T00:29:02.093Z,2.85
2023-01-04T00:33:57.583Z,0.35
2023-01-04T00:36:25.028Z,0.30
2023-01-04T00:39:07.752Z,1.55
2023-01-04T00:42:00.373Z,1.17
2023-01-04T00:44:28.773Z,0.88
2023-01-04T00:46:56.173Z,1.17
2023-01-04T00:49:23.335Z,1.15
2023-01-04T00:51:50.161Z,1.08
2023-01-04T00:54:17.456Z,0.10
2023-01-04T00:56:44.689Z,1.27
2023-01-04T00:59:13.558Z,0.73
2023-01-04T01:01:41.446Z,1.42
2023-01-04T01:04:12.535Z,2.60
2023-01-04T01:06:39.796Z,5.85
2023-01-04T01:09:06.682Z,5.25
2023-01-04T01:11:34.293Z,7.90
2023-01-04T01:14:01.054Z,5.38
2023-01-04T01:16:53.074Z,8.65
2023-01-04T01:19:14.780Z,7.50
2023-01-04T01:21:41.833Z,7.78
2023-01-04T01:24:16.130Z,7.47
2023-01-04T01:26:42.946Z,7.10
2023-01-04T01:29:09.647Z,6.72
2023-01-04T01:31:36.425Z,7.07
2023-01-04T01:34:03.337Z,7.65
2023-01-04T01:36:30.044Z,6.93
2023-01-04T01:38:56.755Z,7.28
2023-01-04T01:41:29.960Z,6.72
2023-01-04T01:44:02.625Z,8.88
2023-01-04T01:46:43.115Z,5.85
2023-01-04T01:49:33.923Z,7.75
2023-01-04T01:52:06.752Z,6.93
2023-01-04T01:54:39.788Z,8.05
2023-01-04T01:57:09.183Z,9.10
2023-01-04T01:59:40.877Z,9.43
2023-01-04T02:02:08.011Z,7.35
2023-01-04T02:04:37.666Z,5.35
2023-01-04T02:07:05.035Z,8.45
2023-01-04T02:09:33.493Z,7.32
2023-01-04T02:12:00.181Z,7.07
2023-01-04T02:14:27.081Z,7.80
2023-01-04T02:16:56.787Z,10.07
2023-01-04T02:19:57.526Z,4.38
2023-01-04T02:22:51.883Z,7.32
2023-01-04T02:25:39.745Z,7.65
2023-01-04T02:28:37.366Z,6.90
2023-01-04T02:31:49.905Z,7.65
2023-01-04T02:34:31.669Z,7.18
2023-01-04T02:37:06.386Z,8.23
2023-01-04T02:40:22.057Z,7.20
2023-01-04T02:43:27.625Z,5.93
2023-01-04T02:46:01.172Z,10.35
2023-01-04T02:48:54.814Z,8.35
2023-01-04T02:51:33.549Z,8.18
2023-01-04T02:54:13.023Z,11.60
2023-01-04T02:57:05.821Z,10.77
2023-01-04T02:59:54.692Z,7.97
2023-01-04T03:03:04.822Z,7.40
2023-01-04T03:06:17.509Z,9.60
2023-01-04T03:09:04.423Z,8.10
2023-01-04T03:11:59.783Z,11.38
2023-01-04T03:14:33.664Z,8.00
2023-01-04T03:17:05.617Z,12.95
2023-01-04T03:22:51.140Z,11.40
2023-01-04T03:25:42.364Z,11.30
2023-01-04T03:28:32.669Z,11.20
2023-01-04T03:31:34.572Z,10.43
2023-01-04T03:34:19.789Z,10.88
2023-01-04T03:36:50.394Z,9.38
2023-01-04T03:39:47.856Z,7.97
2023-01-04T03:42:41.270Z,9.15
2023-01-04T03:45:41.444Z,7.43
2023-01-04T03:48:33.255Z,4.75
2023-01-04T03:51:23.719Z,8.88
2023-01-04T03:54:20.701Z,7.10
2023-01-04T03:56:50.210Z,5.82
2023-01-04T03:59:17.205Z,7.32
2023-01-04T04:01:45.076Z,9.43
2023-01-04T04:04:30.540Z,5.18
2023-01-04T04:07:15.716Z,7.90
2023-01-04T04:09:42.490Z,5.10
2023-01-04T04:12:09.237Z,7.78
2023-01-04T04:14:36.038Z,8.07
2023-01-04T04:17:02.930Z,7.10
2023-01-04T04:19:29.713Z,7.07
2023-01-04T04:21:56.515Z,7.40
2023-01-04T04:24:25.598Z,7.78
2023-01-04T04:26:56.973Z,7.32
2023-01-04T04:29:24.545Z,10.02
2023-01-04T04:31:51.547Z,5.85
2023-01-04T04:34:18.614Z,8.60
2023-01-04T04:36:45.484Z,8.00
2023-01-04T04:39:12.863Z,7.45
2023-01-04T04:41:41.809Z,8.30
2023-01-04T04:44:09.935Z,6.40
2023-01-04T04:46:37.004Z,8.35
2023-01-04T04:49:04.495Z,10.23
2023-01-04T04:51:31.416Z,7.63
2023-01-04T04:53:58.444Z,10.80
2023-01-04T04:56:25.276Z,8.00
2023-01-04T04:58:52.315Z,10.07
2023-01-04T05:01:19.813Z,9.75
2023-01-04T05:03:46.810Z,10.32
2023-01-04T05:06:13.929Z,8.75
2023-01-04T05:08:40.653Z,7.78
2023-01-04T05:11:09.973Z,10.57
2023-01-04T05:13:37.045Z,10.13
2023-01-04T05:16:05.698Z,8.90
2023-01-04T05:18:32.605Z,9.63
2023-01-04T05:21:00.138Z,8.55
2023-01-04T05:23:26.993Z,8.02
2023-01-04T05:25:57.665Z,9.95
2023-01-04T05:28:24.839Z,8.68
2023-01-04T05:30:53.917Z,4.13
2023-01-04T05:33:29.402Z,7.13
2023-01-04T05:36:00.010Z,6.80
2023-01-04T05:38:27.375Z,5.82
2023-01-04T05:40:54.549Z,10.02
2023-01-04T05:43:23.408Z,9.43
2023-01-04T05:45:52.868Z,6.30
2023-01-04T05:48:21.137Z,4.95
2023-01-04T05:50:48.318Z,6.55
2023-01-04T05:53:19.523Z,7.25
2023-01-04T05:55:48.426Z,8.52
2023-01-04T05:58:15.567Z,8.65
2023-01-04T06:00:42.318Z,8.25
2023-01-04T06:03:09.127Z,5.05
2023-01-04T06:05:35.995Z,3.65
2023-01-04T06:08:02.784Z,4.25
2023-01-04T06:10:29.823Z,7.80
2023-01-04T06:12:56.703Z,4.60
2023-01-04T06:15:23.429Z,4.78
2023-01-04T06:17:50.158Z,4.78
2023-01-04T06:20:17.196Z,6.65
2023-01-04T06:22:44.625Z,5.35
2023-01-04T06:25:11.556Z,5.25
2023-01-04T06:27:38.512Z,5.13
2023-01-04T06:30:05.842Z,5.50
2023-01-04T06:32:32.846Z,6.85
2023-01-04T06:34:59.665Z,6.10
2023-01-04T06:37:26.590Z,5.20
2023-01-04T06:39:53.726Z,4.40
2023-01-04T06:42:39.224Z,5.25
2023-01-04T06:45:06.521Z,5.07
2023-01-04T06:47:33.296Z,8.48
2023-01-04T06:50:00.226Z,7.88
2023-01-04T06:52:27.190Z,5.15
2023-01-04T06:54:53.912Z,5.85
2023-01-04T06:57:20.741Z,5.10
2023-01-04T06:59:47.517Z,4.10
2023-01-04T07:02:15.457Z,4.00
2023-01-04T07:04:43.530Z,5.50
2023-01-04T07:07:10.670Z,3.95
2023-01-04T07:09:38.297Z,3.17
2023-01-04T07:12:05.475Z,4.90
2023-01-04T07:14:32.192Z,6.18
2023-01-04T07:16:58.972Z,5.18
2023-01-04T07:19:25.779Z,5.95
2023-01-04T07:21:53.837Z,4.22
2023-01-04T07:24:24.682Z,6.00
2023-01-04T07:26:54.749Z,5.70
2023-01-04T07:29:22.535Z,5.55
2023-01-04T07:31:52.561Z,8.95
2023-01-04T07:34:21.314Z,6.60
2023-01-04T07:36:49.479Z,7.32
2023-01-04T07:39:17.692Z,5.38
2023-01-04T07:41:45.163Z,7.97
2023-01-04T07:44:13.431Z,4.25
2023-01-04T07:46:40.648Z,3.28
2023-01-04T07:49:16.569Z,5.20
2023-01-04T07:51:45.629Z,6.25
2023-01-04T07:54:12.573Z,6.90
2023-01-04T07:56:39.588Z,8.15
2023-01-04T07:59:08.077Z,9.35
2023-01-04T08:01:37.875Z,10.02
2023-01-04T08:04:07.070Z,8.88
2023-01-04T08:06:34.590Z,10.48
2023-01-04T08:09:02.403Z,7.80
2023-01-04T08:11:29.229Z,9.10
2023-01-04T08:13:56.038Z,8.65
2023-01-04T08:16:33.956Z,9.73
2023-01-04T08:19:03.496Z,9.68
2023-01-04T08:21:32.222Z,11.90
2023-01-04T08:23:59.024Z,10.82
2023-01-04T08:26:26.001Z,10.77
2023-01-04T08:28:52.878Z,11.73
2023-01-04T08:31:22.301Z,11.93
2023-01-04T08:33:50.249Z,14.25
2023-01-04T08:36:26.658Z,13.48
2023-01-04T08:39:01.349Z,13.02
2023-01-04T08:41:56.621Z,12.38
2023-01-04T08:44:26.808Z,14.30
2023-01-04T08:46:54.597Z,13.70
2023-01-04T08:49:22.491Z,14.55
2023-01-04T08:51:49.687Z,20.25
2023-01-04T08:54:16.632Z,15.80
2023-01-04T08:56:43.751Z,16.70
2023-01-04T08:59:13.135Z,15.07
2023-01-04T09:01:40.962Z,13.75
2023-01-04T09:04:08.280Z,17.92
2023-01-04T09:06:35.496Z,13.52
2023-01-04T09:09:02.329Z,18.02
2023-01-04T09:11:29.249Z,17.75
2023-01-04T09:14:06.384Z,14.23
2023-01-04T09:16:34.350Z,16.40
2023-01-04T09:19:01.212Z,16.13
2023-01-04T09:21:28.361Z,14.60
2023-01-04T09:23:57.381Z,17.58
2023-01-04T09:26:24.684Z,14.73
2023-01-04T09:28:56.024Z,16.65
2023-01-04T09:31:25.970Z,16.67
2023-01-04T09:36:40.272Z,17.77
2023-01-04T09:39:07.060Z,17.48
2023-01-04T09:41:43.407Z,15.18
2023-01-04T09:44:10.096Z,14.27
2023-01-04T09:46:52.932Z,16.73
2023-01-04T09:49:36.623Z,15.98
2023-01-04T09:52:11.651Z,14.50
2023-01-04T09:55:02.917Z,17.50
2023-01-04T09:57:53.826Z,17.88
2023-01-04T10:00:27.530Z,17.02
2023-01-04T10:03:07.660Z,14.27
2023-01-04T10:05:35.037Z,12.90
2023-01-04T10:08:03.360Z,15.48
2023-01-04T10:11:11.204Z,15.73
2023-01-04T10:14:15.330Z,14.93
2023-01-04T10:17:13.721Z,15.77
2023-01-04T10:22:58.576Z,15.50
2023-01-04T10:25:50.534Z,18.23
2023-01-04T10:28:34.500Z,16.52
2023-01-04T10:31:40.370Z,17.88
2023-01-04T10:34:46.485Z,17.67
2023-01-04T10:37:25.096Z,14.27
2023-01-04T10:39:56.273Z,17.55
2023-01-04T10:42:25.842Z,18.02
2023-01-04T10:45:18.814Z,17.15
2023-01-04T10:47:54.748Z,17.17
2023-01-04T10:50:38.077Z,18.80
2023-01-04T10:53:22.111Z,16.30
2023-01-04T10:56:25.597Z,17.70
2023-01-04T10:58:54.780Z,17.23
2023-01-04T11:01:28.927Z,15.25
2023-01-04T11:04:19.471Z,14.82
2023-01-04T11:07:27.581Z,14.80
2023-01-04T11:10:07.370Z,16.13
2023-01-04T11:12:34.173Z,15.45
2023-01-04T11:15:01.146Z,13.63
2023-01-04T11:17:32.343Z,14.57
2023-01-04T11:19:59.201Z,16.75
2023-01-04T11:22:30.473Z,14.57
2023-01-04T11:28:16.182Z,12.23
2023-01-04T11:31:01.845Z,12.25
2023-01-04T11:33:28.806Z,13.88
2023-01-04T11:35:59.181Z,10.88
2023-01-04T11:38:28.353Z,13.13
2023-01-04T11:41:06.638Z,11.70
2023-01-04T11:43:38.754Z,13.35
2023-01-04T11:46:17.429Z,12.88
2023-01-04T11:48:46.103Z,12.65
2023-01-04T11:51:31.598Z,9.80
2023-01-04T11:54:02.234Z,11.25
2023-01-04T11:56:31.443Z,7.03
2023-01-04T11:59:20.636Z,6.05
2023-01-04T12:02:10.157Z,6.55
2023-01-04T12:04:37.041Z,6.80
2023-01-04T12:07:13.939Z,8.90
2023-01-04T12:09:40.708Z,6.35
2023-01-04T12:12:12.370Z,7.00
2023-01-04T12:14:48.391Z,5.55
2023-01-04T12:17:50.461Z,6.70
2023-01-04T12:20:20.360Z,8.48
2023-01-04T12:22:47.330Z,10.50
2023-01-04T12:25:50.044Z,7.57
2023-01-04T12:28:41.053Z,8.73
2023-01-04T12:31:20.683Z,8.27
2023-01-04T12:33:52.681Z,7.25
2023-01-04T12:36:43.310Z,8.60
2023-01-04T12:39:15.732Z,8.43
2023-01-04T12:42:00.803Z,7.75
2023-01-04T12:44:36.894Z,10.20
2023-01-04T12:47:42.000Z,9.05
2023-01-04T12:50:13.744Z,12.13
2023-01-04T12:55:31.605Z,10.73
2023-01-04T12:57:59.369Z,10.98
2023-01-04T13:00:51.084Z,11.55
2023-01-04T13:03:18.355Z,9.40
2023-01-04T13:06:03.849Z,10.15
2023-01-04T13:08:35.764Z,7.65
2023-01-04T13:11:05.491Z,8.10
2023-01-04T13:14:13.755Z,5.53
2023-01-04T13:17:03.404Z,5.57
2023-01-04T13:19:31.410Z,4.00
2023-01-04T13:21:58.849Z,3.15
2023-01-04T13:24:37.098Z,5.47
2023-01-04T13:27:09.006Z,2.83
2023-01-04T13:29:36.598Z,5.13
2023-01-04T13:32:15.145Z,8.57
2023-01-04T13:34:59.658Z,5.88
2023-01-04T13:37:26.336Z,3.25
2023-01-04T13:40:01.126Z,4.97
2023-01-04T13:42:33.467Z,6.30
2023-01-04T13:45:20.513Z,3.72
2023-01-04T13:47:51.737Z,2.63
2023-01-04T13:50:29.798Z,3.53
2023-01-04T13:53:06.278Z,5.43
2023-01-04T13:55:36.613Z,5.60
2023-01-04T13:58:06.178Z,6.32
2023-01-04T14:00:43.014Z,6.90
2023-01-04T14:03:37.119Z,7.93
2023-01-04T14:06:09.764Z,6.35
2023-01-04T14:08:41.971Z,6.35
2023-01-04T14:11:59.183Z,6.07
2023-01-04T14:14:35.713Z,7.38
2023-01-04T14:17:22.126Z,8.07
2023-01-04T14:19:57.666Z,5.22
2023-01-04T14:22:24.367Z,7.18
2023-01-04T14:25:10.042Z,7.88
2023-01-04T14:27:44.792Z,10.27
2023-01-04T14:30:20.532Z,8.77
2023-01-04T14:33:02.615Z,9.82
2023-01-04T14:35:30.479Z,6.25
2023-01-04T14:38:06.453Z,10.13
2023-01-04T14:40:34.052Z,10.27
2023-01-04T14:43:00.810Z,8.88
2023-01-04T14:45:27.586Z,9.35
2023-01-04T14:47:54.310Z,11.38
2023-01-04T14:50:21.063Z,9.95
2023-01-04T14:52:54.676Z,13.27
2023-01-04T14:55:23.458Z,12.20
2023-01-04T14:57:50.921Z,14.38
2023-01-04T15:00:19.935Z,15.07
2023-01-04T15:02:50.969Z,12.82
2023-01-04T15:05:21.212Z,12.48
2023-01-04T15:07:48.412Z,10.93
2023-01-04T15:10:26.579Z,13.02
2023-01-04T15:12:54.983Z,14.35
2023-01-04T15:15:22.217Z,10.63
2023-01-04T15:17:49.461Z,13.77
2023-01-04T15:20:16.325Z,13.93
2023-01-04T15:22:44.124Z,11.07
2023-01-04T15:25:11.733Z,10.75
2023-01-04T15:27:42.457Z,14.00
2023-01-04T15:30:11.796Z,14.35
2023-01-04T15:32:39.195Z,13.60
2023-01-04T15:35:06.391Z,10.57
2023-01-04T15:37:33.145Z,13.00
2023-01-04T15:40:02.725Z,13.27
2023-01-04T15:42:49.411Z,12.98
2023-01-04T15:45:16.514Z,12.73
2023-01-04T15:47:43.374Z,13.48
2023-01-04T15:50:10.148Z,13.48
2023-01-04T15:52:36.908Z,15.30
2023-01-04T15:55:03.921Z,15.07
2023-01-04T15:57:30.707Z,14.70
2023-01-04T15:59:57.524Z,17.25
2023-01-04T16:02:24.888Z,16.13
2023-01-04T16:04:51.694Z,16.33
2023-01-04T16:07:18.918Z,17.00
2023-01-04T16:09:45.660Z,19.58
2023-01-04T16:12:30.881Z,17.27
2023-01-04T16:14:57.651Z,15.27
2023-01-04T16:17:25.428Z,17.08
2023-01-04T16:19:52.205Z,18.25
2023-01-04T16:22:19.339Z,16.80
2023-01-04T16:25:10.010Z,15.00
2023-01-04T16:27:35.591Z,16.98
2023-01-04T16:30:04.002Z,16.65
2023-01-04T16:32:32.362Z,14.30
2023-01-04T16:34:59.224Z,16.85
2023-01-04T16:37:28.077Z,15.50
2023-01-04T16:40:11.316Z,16.95
2023-01-04T16:42:38.851Z,17.33
2023-01-04T16:45:07.095Z,18.80
2023-01-04T16:47:42.242Z,16.70
2023-01-04T16:50:10.776Z,16.83
2023-01-04T16:52:38.777Z,16.02
2023-01-04T16:55:06.819Z,17.75
2023-01-04T16:57:33.700Z,14.85
2023-01-04T17:00:00.565Z,18.63
2023-01-04T17:02:27.428Z,16.38
2023-01-04T17:04:59.680Z,19.17
2023-01-04T17:07:32.449Z,16.77
2023-01-04T17:10:02.123Z,18.45
2023-01-04T17:12:48.026Z,16.95
2023-01-04T17:18:03.263Z,17.52
2023-01-04T17:20:30.127Z,18.98
2023-01-04T17:22:56.955Z,17.85
2023-01-04T17:25:23.722Z,17.73
2023-01-04T17:27:50.535Z,17.15
2023-01-04T17:30:17.250Z,17.10
2023-01-04T17:32:43.974Z,16.00
2023-01-04T17:35:10.729Z,17.50
2023-01-04T17:37:37.534Z,17.38
2023-01-04T17:40:04.614Z,17.73
2023-01-04T17:42:34.245Z,16.45
2023-01-04T17:45:01.018Z,19.75
2023-01-04T17:47:27.797Z,17.35
2023-01-04T17:49:54.571Z,16.55
2023-01-04T17:52:30.417Z,16.52
2023-01-04T17:54:57.899Z,14.88
2023-01-04T17:57:24.668Z,18.63
2023-01-04T17:59:51.438Z,18.70
2023-01-04T18:02:18.425Z,18.70
2023-01-04T18:04:45.232Z,16.60
2023-01-04T18:09:43.705Z,16.45
2023-01-04T18:12:10.601Z,18.20
2023-01-04T18:14:37.353Z,16.77
2023-01-04T18:17:06.210Z,17.60
2023-01-04T18:19:33.099Z,18.75
2023-01-04T18:21:59.966Z,17.20
2023-01-04T18:24:42.379Z,16.42
2023-01-04T18:27:23.287Z,15.15
2023-01-04T18:29:52.661Z,17.58
2023-01-04T18:32:20.917Z,17.60
2023-01-04T18:34:47.766Z,15.77
2023-01-04T18:37:16.112Z,17.30
2023-01-04T18:39:43.231Z,16.00
2023-01-04T18:42:10.198Z,17.85
2023-01-04T18:44:43.824Z,14.25
2023-01-04T18:47:10.818Z,17.67
2023-01-04T18:49:38.565Z,15.57
2023-01-04T18:52:05.667Z,15.73
2023-01-04T18:54:32.449Z,14.80
2023-01-04T18:57:01.345Z,15.80
2023-01-04T18:59:29.469Z,15.45
2023-01-04T19:02:01.469Z,16.58
2023-01-04T19:04:30.901Z,12.88
2023-01-04T19:06:58.126Z,13.80
2023-01-04T19:09:25.114Z,15.85
2023-01-04T19:11:52.040Z,15.93
2023-01-04T19:14:18.906Z,14.43
2023-01-04T19:16:45.858Z,16.10
2023-01-04T19:19:12.694Z,15.70
2023-01-04T19:21:39.431Z,13.23
2023-01-04T19:24:06.574Z,15.43
2023-01-04T19:26:33.382Z,13.73
2023-01-04T19:29:00.495Z,11.52
2023-01-04T19:31:27.474Z,11.90
2023-01-04T19:33:54.223Z,12.10
2023-01-04T19:36:21.315Z,13.27
2023-01-04T19:38:48.316Z,10.95
2023-01-04T19:41:29.142Z,13.32
2023-01-04T19:44:03.106Z,12.13
2023-01-04T19:46:31.636Z,9.85
2023-01-04T19:48:58.613Z,9.02
2023-01-04T19:51:25.376Z,11.30
2023-01-04T19:53:52.211Z,10.50
2023-01-04T19:56:19.024Z,9.45
2023-01-04T19:58:45.810Z,11.32
2023-01-04T20:01:17.075Z,11.75
2023-01-04T20:03:44.248Z,12.70
2023-01-04T20:06:12.592Z,10.18
2023-01-04T20:08:40.247Z,9.65
2023-01-04T20:11:07.521Z,12.73
2023-01-04T20:13:34.484Z,9.63
2023-01-04T20:16:04.814Z,10.55
2023-01-04T20:18:32.605Z,10.23
2023-01-04T20:20:59.356Z,7.18
2023-01-04T20:23:26.179Z,10.27
2023-01-04T20:25:53.841Z,11.50
2023-01-04T20:28:23.379Z,12.73
2023-01-04T20:31:01.131Z,8.38
2023-01-04T20:33:27.934Z,11.05
2023-01-04T20:35:54.665Z,11.38
2023-01-04T20:38:21.380Z,11.63
2023-01-04T20:40:48.096Z,8.27
2023-01-04T20:43:34.022Z,12.70
2023-01-04T20:46:02.650Z,9.77
2023-01-04T20:48:29.778Z,10.40
2023-01-04T20:50:56.851Z,10.27
2023-01-04T20:53:23.795Z,10.75
2023-01-04T20:55:50.672Z,6.85
2023-01-04T20:58:17.930Z,10.02
2023-01-04T21:00:46.389Z,8.13
2023-01-04T21:03:13.834Z,8.90
2023-01-04T21:05:45.382Z,11.52
2023-01-04T21:08:13.142Z,8.63
2023-01-04T21:10:41.987Z,9.38
2023-01-04T21:13:09.959Z,8.07
2023-01-04T21:15:37.575Z,8.43
2023-01-04T21:18:05.638Z,7.00
2023-01-04T21:20:33.037Z,8.95
2023-01-04T21:22:59.788Z,9.68
2023-01-04T21:25:26.660Z,6.35
2023-01-04T21:27:53.627Z,6.47
2023-01-04T21:30:20.796Z,5.95
2023-01-04T21:32:47.614Z,3.80
2023-01-04T21:35:14.437Z,8.80
2023-01-04T21:37:41.157Z,6.50
2023-01-04T21:40:08.443Z,4.80
2023-01-04T21:42:35.336Z,4.53
2023-01-04T21:45:02.176Z,5.93
2023-01-04T21:47:31.297Z,3.53
2023-01-04T21:49:58.044Z,5.57
2023-01-04T21:52:24.915Z,3.42
2023-01-04T21:54:52.160Z,8.75
2023-01-04T21:57:18.914Z,4.90
2023-01-04T21:59:45.732Z,4.85
2023-01-04T22:02:17.035Z,3.35
2023-01-04T22:04:44.464Z,2.20
2023-01-04T22:07:11.373Z,2.65
2023-01-04T22:09:38.210Z,3.97
2023-01-04T22:12:05.473Z,2.05
2023-01-04T22:14:33.285Z,3.33
2023-01-04T22:17:00.194Z,3.22
2023-01-04T22:19:27.279Z,3.83
2023-01-04T22:21:54.140Z,3.03
2023-01-04T22:24:20.936Z,1.63
2023-01-04T22:26:49.299Z,3.00
2023-01-04T22:29:17.026Z,2.95
2023-01-04T22:31:43.785Z,2.47
2023-01-04T22:34:10.547Z,2.67
2023-01-04T22:36:37.310Z,3.05
2023-01-04T22:39:04.314Z,6.90
2023-01-04T22:41:31.049Z,4.03
2023-01-04T22:44:03.537Z,1.58
2023-01-04T22:46:32.418Z,2.03
2023-01-04T22:49:00.833Z,1.92
2023-01-04T22:51:29.266Z,1.92
2023-01-04T22:54:01.288Z,2.45
2023-01-04T22:56:28.892Z,1.60
2023-01-04T22:58:56.772Z,1.98
2023-01-04T23:01:29.672Z,3.08
2023-01-04T23:03:57.949Z,1.05
2023-01-04T23:06:26.107Z,2.10
2023-01-04T23:09:05.106Z,22.88
2023-01-04T23:11:33.911Z,2.40
2023-01-04T23:14:06.065Z,1.35
2023-01-04T23:16:33.639Z,1.48
2023-01-04T23:19:02.643Z,5.03
2023-01-04T23:21:30.178Z,1.73
2023-01-04T23:23:57.155Z,3.08
2023-01-04T23:26:25.720Z,1.35
2023-01-04T23:28:52.758Z,0.98
2023-01-04T23:31:22.079Z,3.25
2023-01-04T23:33:54.017Z,2.47
2023-01-04T23:36:23.720Z,1.45
2023-01-04T23:38:53.433Z,1.25
2023-01-04T23:41:20.635Z,1.58
2023-01-04T23:43:47.487Z,3.40
2023-01-04T23:46:17.839Z,2.33
2023-01-04T23:48:45.256Z,1.58
2023-01-04T23:51:13.143Z,2.08
2023-01-04T23:53:40.077Z,2.50
2023-01-04T23:56:13.452Z,1.80
2023-01-04T23:58:40.282Z,2.03
